createdAt,value
2019-05-11T00:00:46.995Z,3.77
2019-05-11T00:03:15.386Z,3.33
2019-05-11T00:05:44.511Z,2.97
2019-05-11T00:08:12.683Z,3.70
2019-05-11T00:10:40.813Z,4.03
2019-05-11T00:13:09.055Z,3.50
2019-05-11T00:15:37.188Z,3.43
2019-05-11T00:18:05.423Z,4.00
2019-05-11T00:20:35.421Z,3.77
2019-05-11T00:23:03.610Z,4.23
2019-05-11T00:25:32.107Z,3.73
2019-05-11T00:28:00.689Z,4.63
2019-05-11T00:30:28.904Z,4.37
2019-05-11T00:32:58.390Z,4.77
2019-05-11T00:35:26.950Z,5.40
2019-05-11T00:37:55.306Z,4.33
2019-05-11T00:40:23.449Z,4.10
2019-05-11T00:42:51.901Z,4.30
2019-05-11T00:45:21.335Z,4.47
2019-05-11T00:47:49.549Z,3.87
2019-05-11T00:50:17.843Z,4.67
2019-05-11T00:52:46.309Z,4.30
2019-05-11T00:55:15.452Z,4.07
2019-05-11T00:57:43.724Z,4.00
2019-05-11T01:00:12.254Z,4.00
2019-05-11T01:02:40.481Z,4.27
2019-05-11T01:05:09.243Z,4.50
2019-05-11T01:07:37.918Z,4.40
2019-05-11T01:10:06.783Z,4.27
2019-05-11T01:12:34.944Z,4.60
2019-05-11T01:15:08.268Z,4.57
2019-05-11T01:17:36.539Z,3.73
2019-05-11T01:20:05.469Z,5.07
2019-05-11T01:22:34.005Z,4.40
2019-05-11T01:25:02.292Z,4.73
2019-05-11T01:27:30.506Z,4.03
2019-05-11T01:29:58.966Z,5.03
2019-05-11T01:32:27.327Z,4.60
2019-05-11T01:34:55.448Z,4.60
2019-05-11T01:37:24.219Z,4.10
2019-05-11T01:39:52.469Z,4.67
2019-05-11T01:42:20.780Z,4.47
2019-05-11T01:44:49.347Z,4.83
2019-05-11T01:47:17.614Z,4.70
2019-05-11T01:49:45.850Z,4.33
2019-05-11T01:52:14.012Z,4.77
2019-05-11T01:54:42.771Z,4.77
2019-05-11T01:57:11.212Z,4.10
2019-05-11T01:59:39.378Z,4.80
2019-05-11T02:02:07.871Z,5.03
2019-05-11T02:04:36.031Z,4.50
2019-05-11T02:07:04.477Z,4.83
2019-05-11T02:09:32.974Z,4.60
2019-05-11T02:12:01.181Z,4.60
2019-05-11T02:14:29.424Z,4.70
2019-05-11T02:16:57.579Z,4.77
2019-05-11T02:19:25.737Z,5.07
2019-05-11T02:21:53.854Z,4.80
2019-05-11T02:24:22.031Z,5.00
2019-05-11T02:26:50.238Z,5.13
2019-05-11T02:29:18.409Z,4.53
2019-05-11T02:31:46.859Z,5.07
2019-05-11T02:34:15.112Z,4.60
2019-05-11T02:36:44.436Z,4.70
2019-05-11T02:39:13.130Z,4.73
2019-05-11T02:41:41.545Z,5.40
2019-05-11T02:44:09.726Z,5.17
2019-05-11T02:46:38.140Z,4.67
2019-05-11T02:49:06.608Z,4.97
2019-05-11T02:51:35.545Z,5.07
2019-05-11T02:54:04.148Z,5.33
2019-05-11T02:56:32.710Z,4.83
2019-05-11T02:59:01.146Z,5.47
2019-05-11T03:01:29.285Z,4.70
2019-05-11T03:03:57.508Z,5.17
2019-05-11T03:06:26.223Z,5.00
2019-05-11T03:08:54.749Z,4.83
2019-05-11T03:11:22.893Z,5.50
2019-05-11T03:13:51.465Z,5.13
2019-05-11T03:16:19.923Z,5.03
2019-05-11T03:18:48.656Z,5.17
2019-05-11T03:21:16.879Z,6.30
2019-05-11T03:23:45.052Z,4.57
2019-05-11T03:26:13.177Z,5.40
2019-05-11T03:28:42.256Z,4.97
2019-05-11T03:31:10.776Z,4.93
2019-05-11T03:33:39.263Z,5.03
2019-05-11T03:36:07.387Z,5.00
2019-05-11T03:38:35.546Z,5.13
2019-05-11T03:41:03.915Z,5.83
2019-05-11T03:43:32.189Z,5.83
2019-05-11T03:46:00.321Z,5.60
2019-05-11T03:48:28.534Z,4.73
2019-05-11T03:50:56.659Z,4.83
2019-05-11T03:53:25.253Z,4.83
2019-05-11T03:55:53.375Z,5.17
2019-05-11T03:58:25.883Z,5.33
2019-05-11T04:00:51.753Z,4.87
2019-05-11T04:03:19.916Z,4.37
2019-05-11T04:05:48.457Z,5.17
2019-05-11T04:08:17.066Z,5.10
2019-05-11T04:10:45.201Z,4.80
2019-05-11T04:13:13.470Z,5.07
2019-05-11T04:15:41.879Z,5.10
2019-05-11T04:18:10.441Z,4.67
2019-05-11T04:20:38.937Z,5.40
2019-05-11T04:23:07.071Z,5.50
2019-05-11T04:25:35.523Z,5.07
2019-05-11T04:28:03.664Z,5.00
2019-05-11T04:30:32.771Z,4.63
2019-05-11T04:33:00.905Z,5.57
2019-05-11T04:35:29.733Z,5.33
2019-05-11T04:37:58.755Z,5.70
2019-05-11T04:40:27.725Z,5.50
2019-05-11T04:42:56.387Z,5.70
2019-05-11T04:45:25.090Z,5.77
2019-05-11T04:47:54.005Z,5.83
2019-05-11T04:50:22.202Z,5.67
2019-05-11T04:52:50.601Z,5.63
2019-05-11T04:55:19.176Z,5.90
2019-05-11T04:57:47.317Z,5.47
2019-05-11T05:00:16.683Z,5.67
2019-05-11T05:02:44.896Z,5.20
2019-05-11T05:05:13.753Z,5.90
2019-05-11T05:07:48.793Z,5.53
2019-05-11T05:10:14.120Z,5.20
2019-05-11T05:12:50.507Z,6.23
2019-05-11T05:15:13.240Z,5.63
2019-05-11T05:17:41.515Z,5.90
2019-05-11T05:20:10.222Z,5.07
2019-05-11T05:22:38.654Z,5.93
2019-05-11T05:25:08.205Z,5.33
2019-05-11T05:27:36.700Z,5.67
2019-05-11T05:30:07.443Z,5.87
2019-05-11T05:32:36.227Z,5.90
2019-05-11T05:35:04.807Z,5.93
2019-05-11T05:37:33.019Z,5.47
2019-05-11T05:40:01.851Z,5.57
2019-05-11T05:42:30.043Z,5.53
2019-05-11T05:45:00.291Z,5.40
2019-05-11T05:47:28.869Z,5.10
2019-05-11T05:49:57.157Z,5.30
2019-05-11T05:52:25.600Z,5.33
2019-05-11T05:54:53.921Z,5.03
2019-05-11T05:57:22.046Z,6.27
2019-05-11T05:59:50.198Z,5.10
2019-05-11T06:02:18.453Z,5.53
2019-05-11T06:04:46.664Z,5.97
2019-05-11T06:07:14.854Z,5.30
2019-05-11T06:09:43.575Z,5.27
2019-05-11T06:12:11.979Z,5.30
2019-05-11T06:14:40.260Z,4.60
2019-05-11T06:17:08.415Z,4.70
2019-05-11T06:19:37.524Z,5.13
2019-05-11T06:22:05.677Z,5.33
2019-05-11T06:24:33.865Z,5.60
2019-05-11T06:27:02.398Z,4.87
2019-05-11T06:29:31.192Z,4.47
2019-05-11T06:31:59.388Z,4.30
2019-05-11T06:34:27.560Z,4.70
2019-05-11T06:36:56.935Z,4.00
2019-05-11T06:39:25.211Z,3.83
2019-05-11T06:41:53.636Z,3.73
2019-05-11T06:44:22.185Z,3.67
2019-05-11T06:46:50.953Z,3.57
2019-05-11T06:49:19.602Z,3.47
2019-05-11T06:51:47.746Z,3.00
2019-05-11T06:54:16.029Z,3.03
2019-05-11T06:56:44.453Z,2.60
2019-05-11T06:59:12.644Z,3.10
2019-05-11T07:01:40.855Z,2.63
2019-05-11T07:04:09.767Z,2.10
2019-05-11T07:06:38.068Z,2.90
2019-05-11T07:09:07.259Z,2.13
2019-05-11T07:11:35.697Z,2.13
2019-05-11T07:14:19.387Z,2.47
2019-05-11T07:16:34.532Z,1.90
2019-05-11T07:19:02.998Z,2.00
2019-05-11T07:21:31.854Z,2.17
2019-05-11T07:24:00.170Z,1.97
2019-05-11T07:26:28.385Z,2.40
2019-05-11T07:28:56.642Z,2.40
2019-05-11T07:31:25.014Z,2.37
2019-05-11T07:33:53.338Z,2.73
2019-05-11T07:36:21.640Z,2.53
2019-05-11T07:38:49.787Z,2.17
2019-05-11T07:41:17.966Z,2.17
2019-05-11T07:43:48.324Z,2.33
2019-05-11T07:46:18.249Z,2.77
2019-05-11T07:48:47.959Z,2.20
2019-05-11T07:51:18.336Z,2.37
2019-05-11T07:53:48.658Z,2.17
2019-05-11T07:56:18.696Z,2.43
2019-05-11T07:58:48.057Z,2.47
2019-05-11T08:01:18.851Z,2.30
2019-05-11T08:03:48.303Z,2.20
2019-05-11T08:06:18.298Z,2.03
2019-05-11T08:08:49.055Z,2.40
2019-05-11T08:11:18.366Z,1.90
2019-05-11T08:13:48.211Z,2.03
2019-05-11T08:16:18.513Z,2.03
2019-05-11T08:18:48.384Z,2.17
2019-05-11T08:21:17.910Z,2.07
2019-05-11T08:23:48.380Z,2.40
2019-05-11T08:26:18.800Z,2.27
2019-05-11T08:28:48.595Z,2.80
2019-05-11T08:31:18.702Z,2.03
2019-05-11T08:33:48.148Z,2.23
2019-05-11T08:36:18.370Z,2.50
2019-05-11T08:38:48.302Z,1.83
2019-05-11T08:41:18.403Z,2.30
2019-05-11T08:43:48.018Z,2.13
2019-05-11T08:46:18.621Z,2.20
2019-05-11T08:48:47.871Z,2.40
2019-05-11T08:51:18.384Z,2.13
2019-05-11T08:53:48.015Z,2.13
2019-05-11T08:56:18.395Z,2.80
2019-05-11T08:58:49.005Z,2.83
2019-05-11T09:01:18.360Z,2.83
2019-05-11T09:03:47.772Z,2.70
2019-05-11T09:06:17.985Z,3.27
2019-05-11T09:08:46.297Z,2.50
2019-05-11T09:11:14.479Z,2.53
2019-05-11T09:13:42.627Z,2.23
2019-05-11T09:16:11.201Z,2.80
2019-05-11T09:18:39.435Z,2.20
2019-05-11T09:21:08.463Z,2.40
2019-05-11T09:23:40.358Z,2.50
2019-05-11T09:26:08.766Z,2.17
2019-05-11T09:28:38.449Z,3.17
2019-05-11T09:31:08.549Z,2.67
2019-05-11T09:33:38.646Z,2.60
2019-05-11T09:36:08.570Z,2.70
2019-05-11T09:38:38.391Z,2.57
2019-05-11T09:41:11.879Z,2.47
2019-05-11T09:43:38.098Z,2.70
2019-05-11T09:46:08.382Z,2.13
2019-05-11T09:48:37.827Z,2.63
2019-05-11T09:51:07.944Z,2.90
2019-05-11T09:53:38.778Z,2.70
2019-05-11T09:56:08.063Z,2.37
2019-05-11T09:58:38.653Z,2.50
2019-05-11T10:01:08.847Z,2.60
2019-05-11T10:03:38.692Z,2.90
2019-05-11T10:06:08.331Z,2.53
2019-05-11T10:08:38.075Z,2.70
2019-05-11T10:11:08.379Z,2.83
2019-05-11T10:13:38.435Z,2.23
2019-05-11T10:16:10.340Z,2.70
2019-05-11T10:18:38.558Z,2.20
2019-05-11T10:21:08.099Z,2.03
2019-05-11T10:23:38.233Z,2.63
2019-05-11T10:26:07.957Z,2.07
2019-05-11T10:28:38.771Z,2.03
2019-05-11T10:31:08.585Z,2.03
2019-05-11T10:33:38.242Z,2.10
2019-05-11T10:36:08.231Z,2.10
2019-05-11T10:38:37.925Z,2.00
2019-05-11T10:41:08.533Z,2.13
2019-05-11T10:43:38.078Z,1.87
2019-05-11T10:46:17.052Z,2.13
2019-05-11T10:48:38.841Z,1.97
2019-05-11T10:51:08.228Z,2.27
2019-05-11T10:53:38.425Z,2.17
2019-05-11T10:56:08.791Z,1.80
2019-05-11T10:58:37.902Z,1.67
2019-05-11T11:01:08.636Z,2.10
2019-05-11T11:03:37.771Z,2.07
2019-05-11T11:06:08.514Z,2.13
2019-05-11T11:08:38.261Z,2.00
2019-05-11T11:11:08.136Z,1.87
2019-05-11T11:13:38.683Z,1.47
2019-05-11T11:16:08.424Z,1.90
2019-05-11T11:18:38.633Z,1.80
2019-05-11T11:21:08.725Z,1.83
2019-05-11T11:23:38.524Z,1.93
2019-05-11T11:26:08.178Z,1.37
2019-05-11T11:28:38.369Z,1.77
2019-05-11T11:31:07.793Z,1.80
2019-05-11T11:33:38.255Z,1.57
2019-05-11T11:36:08.369Z,2.00
2019-05-11T11:38:37.563Z,1.60
2019-05-11T11:41:07.615Z,1.57
2019-05-11T11:43:37.779Z,1.67
2019-05-11T11:46:08.394Z,1.70
2019-05-11T11:48:38.508Z,1.50
2019-05-11T11:51:08.111Z,1.90
2019-05-11T11:53:38.391Z,1.70
2019-05-11T11:56:08.330Z,1.90
2019-05-11T11:58:38.118Z,1.80
2019-05-11T12:01:08.172Z,1.37
2019-05-11T12:03:37.933Z,1.50
2019-05-11T12:06:08.702Z,1.40
2019-05-11T12:08:38.917Z,2.20
2019-05-11T12:11:07.915Z,1.57
2019-05-11T12:13:38.425Z,2.13
2019-05-11T12:16:07.709Z,1.60
2019-05-11T12:18:38.111Z,1.50
2019-05-11T12:21:07.958Z,1.77
2019-05-11T12:23:38.095Z,1.70
2019-05-11T12:26:08.534Z,1.83
2019-05-11T12:28:38.242Z,1.97
2019-05-11T12:31:08.735Z,1.50
2019-05-11T12:33:38.548Z,1.73
2019-05-11T12:36:07.875Z,2.30
2019-05-11T12:38:38.240Z,1.43
2019-05-11T12:41:08.652Z,1.90
2019-05-11T12:43:38.220Z,1.80
2019-05-11T12:46:07.969Z,1.80
2019-05-11T12:48:37.899Z,1.70
2019-05-11T12:51:07.969Z,1.53
2019-05-11T12:53:38.514Z,1.77
2019-05-11T12:56:08.239Z,1.73
2019-05-11T12:58:39.595Z,2.20
2019-05-11T13:01:08.894Z,1.90
2019-05-11T13:03:38.609Z,1.50
2019-05-11T13:06:08.200Z,1.77
2019-05-11T13:08:38.711Z,1.60
2019-05-11T13:11:07.856Z,2.00
2019-05-11T13:13:37.843Z,1.67
2019-05-11T13:16:08.563Z,1.63
2019-05-11T13:18:38.267Z,1.73
2019-05-11T13:21:07.725Z,1.50
2019-05-11T13:23:38.293Z,1.67
2019-05-11T13:26:08.659Z,1.70
2019-05-11T13:28:37.803Z,1.97
2019-05-11T13:31:08.223Z,1.83
2019-05-11T13:33:38.283Z,2.07
2019-05-11T13:36:08.898Z,1.77
2019-05-11T13:38:38.684Z,1.63
2019-05-11T13:41:07.949Z,1.33
2019-05-11T13:43:38.437Z,1.93
2019-05-11T13:46:08.699Z,1.77
2019-05-11T13:48:38.638Z,1.47
2019-05-11T13:51:08.750Z,1.67
2019-05-11T13:53:37.730Z,1.83
2019-05-11T13:56:07.984Z,1.50
2019-05-11T13:58:38.114Z,1.57
2019-05-11T14:01:08.073Z,1.83
2019-05-11T14:03:37.739Z,1.70
2019-05-11T14:06:08.587Z,1.60
2019-05-11T14:08:38.421Z,2.13
2019-05-11T14:11:08.560Z,1.70
2019-05-11T14:13:38.687Z,1.43
2019-05-11T14:16:08.129Z,1.83
2019-05-11T14:18:38.676Z,1.37
2019-05-11T14:21:07.995Z,1.50
2019-05-11T14:23:38.670Z,1.60
2019-05-11T14:26:08.452Z,2.03
2019-05-11T14:28:37.827Z,1.50
2019-05-11T14:31:08.268Z,1.77
2019-05-11T14:33:38.365Z,1.43
2019-05-11T14:36:08.629Z,1.70
2019-05-11T14:38:38.125Z,1.43
2019-05-11T14:41:07.759Z,1.67
2019-05-11T14:43:38.278Z,1.60
2019-05-11T14:46:08.595Z,1.90
2019-05-11T14:48:38.977Z,1.37
2019-05-11T14:51:08.530Z,1.70
2019-05-11T14:53:37.824Z,1.63
2019-05-11T14:56:08.322Z,1.60
2019-05-11T14:58:38.476Z,1.67
2019-05-11T15:01:08.652Z,1.97
2019-05-11T15:03:37.994Z,2.00
2019-05-11T15:06:08.302Z,1.37
2019-05-11T15:08:39.065Z,1.80
2019-05-11T15:11:08.306Z,1.30
2019-05-11T15:13:38.196Z,1.43
2019-05-11T15:16:08.119Z,1.93
2019-05-11T15:18:41.768Z,1.40
2019-05-11T15:21:08.425Z,1.47
2019-05-11T15:23:37.812Z,1.20
2019-05-11T15:26:07.839Z,1.70
2019-05-11T15:28:37.961Z,1.30
2019-05-11T15:31:08.036Z,1.10
2019-05-11T15:33:38.248Z,1.20
2019-05-11T15:36:07.595Z,1.57
2019-05-11T15:38:37.854Z,1.33
2019-05-11T15:41:08.174Z,1.40
2019-05-11T15:43:38.562Z,1.30
2019-05-11T15:46:06.775Z,1.43
2019-05-11T15:48:52.814Z,1.30
2019-05-11T15:51:05.503Z,1.40
2019-05-11T15:53:33.838Z,1.33
2019-05-11T15:56:02.381Z,1.20
2019-05-11T15:58:30.503Z,1.23
2019-05-11T16:00:58.848Z,1.60
2019-05-11T16:03:27.730Z,1.37
2019-05-11T16:05:58.139Z,1.20
2019-05-11T16:08:28.167Z,1.50
2019-05-11T16:10:57.823Z,1.57
2019-05-11T16:13:28.330Z,1.57
2019-05-11T16:15:57.699Z,1.50
2019-05-11T16:18:26.293Z,1.37
2019-05-11T16:20:54.467Z,1.50
2019-05-11T16:23:22.612Z,1.40
2019-05-11T16:25:50.745Z,1.10
2019-05-11T16:28:19.467Z,1.40
2019-05-11T16:30:48.186Z,1.30
2019-05-11T16:33:18.040Z,1.90
2019-05-11T16:35:48.783Z,1.60
2019-05-11T16:38:18.828Z,1.17
2019-05-11T16:40:48.020Z,1.50
2019-05-11T16:43:18.987Z,1.20
2019-05-11T16:45:50.736Z,2.17
2019-05-11T16:48:18.594Z,1.33
2019-05-11T16:50:47.103Z,1.20
2019-05-11T16:53:15.294Z,1.13
2019-05-11T16:55:43.512Z,1.67
2019-05-11T16:58:11.763Z,1.90
2019-05-11T17:00:42.389Z,1.90
2019-05-11T17:03:10.653Z,1.50
2019-05-11T17:05:38.848Z,1.40
2019-05-11T17:08:08.131Z,1.83
2019-05-11T17:10:37.006Z,1.60
2019-05-11T17:13:05.689Z,2.27
2019-05-11T17:15:33.873Z,1.63
2019-05-11T17:18:02.173Z,2.33
2019-05-11T17:20:30.374Z,1.70
2019-05-11T17:22:58.494Z,1.90
2019-05-11T17:25:28.804Z,1.87
2019-05-11T17:27:58.649Z,2.40
2019-05-11T17:30:28.027Z,2.30
2019-05-11T17:32:59.211Z,1.47
2019-05-11T17:35:26.866Z,2.57
2019-05-11T17:37:55.026Z,1.30
2019-05-11T17:40:23.690Z,1.77
2019-05-11T17:42:53.891Z,1.43
2019-05-11T17:45:24.180Z,1.83
2019-05-11T17:47:52.984Z,1.37
2019-05-11T17:50:21.480Z,1.53
2019-05-11T17:52:50.555Z,1.83
2019-05-11T17:55:19.630Z,1.80
2019-05-11T17:57:49.536Z,1.20
2019-05-11T18:00:20.041Z,1.60
2019-05-11T18:02:49.186Z,1.57
2019-05-11T18:05:17.922Z,1.70
2019-05-11T18:07:46.770Z,1.30
2019-05-11T18:10:15.099Z,2.17
2019-05-11T18:12:43.857Z,1.70
2019-05-11T18:15:12.297Z,1.53
2019-05-11T18:17:40.468Z,4.07
2019-05-11T18:20:16.818Z,1.63
2019-05-11T18:22:40.143Z,1.63
2019-05-11T18:25:08.802Z,1.67
2019-05-11T18:27:38.626Z,1.67
2019-05-11T18:30:08.801Z,1.63
2019-05-11T18:32:39.540Z,2.53
2019-05-11T18:35:08.473Z,2.20
2019-05-11T18:37:38.956Z,1.80
2019-05-11T18:40:07.955Z,1.57
2019-05-11T18:42:38.100Z,2.00
2019-05-11T18:45:11.308Z,2.17
2019-05-11T18:47:40.107Z,1.60
2019-05-11T18:50:09.205Z,1.73
2019-05-11T18:52:38.236Z,2.20
2019-05-11T18:55:08.373Z,1.93
2019-05-11T18:57:38.400Z,1.83
2019-05-11T19:00:08.980Z,2.17
2019-05-11T19:02:38.478Z,2.20
2019-05-11T19:05:07.247Z,2.13
2019-05-11T19:07:35.418Z,1.90
2019-05-11T19:10:04.381Z,1.97
2019-05-11T19:12:33.189Z,1.93
2019-05-11T19:15:01.348Z,1.60
2019-05-11T19:17:29.519Z,1.90
2019-05-11T19:19:58.054Z,1.97
2019-05-11T19:22:28.718Z,2.23
2019-05-11T19:24:58.253Z,1.97
2019-05-11T19:27:28.670Z,2.07
2019-05-11T19:29:56.541Z,1.97
2019-05-11T19:32:25.070Z,2.43
2019-05-11T19:34:53.652Z,2.50
2019-05-11T19:37:22.355Z,2.57
2019-05-11T19:39:50.841Z,1.50
2019-05-11T19:42:19.148Z,2.90
2019-05-11T19:44:48.065Z,1.80
2019-05-11T19:47:18.124Z,2.40
2019-05-11T19:49:47.911Z,2.03
2019-05-11T19:52:17.816Z,1.43
2019-05-11T19:54:48.765Z,2.10
2019-05-11T19:57:17.976Z,2.00
2019-05-11T19:59:48.080Z,2.03
2019-05-11T20:02:17.833Z,2.20
2019-05-11T20:04:48.063Z,1.67
2019-05-11T20:07:18.309Z,1.73
2019-05-11T20:09:47.216Z,1.93
2019-05-11T20:12:18.029Z,2.10
2019-05-11T20:14:48.141Z,1.90
2019-05-11T20:17:18.157Z,2.10
2019-05-11T20:19:48.898Z,2.00
2019-05-11T20:22:17.400Z,2.70
2019-05-11T20:24:47.564Z,2.20
2019-05-11T20:27:15.736Z,2.33
2019-05-11T20:29:43.879Z,2.00
2019-05-11T20:32:12.054Z,2.00
2019-05-11T20:34:40.287Z,2.00
2019-05-11T20:37:08.805Z,2.37
2019-05-11T20:39:37.888Z,2.03
2019-05-11T20:42:08.564Z,1.77
2019-05-11T20:44:37.880Z,1.90
2019-05-11T20:47:06.919Z,2.77
2019-05-11T20:49:35.123Z,2.10
2019-05-11T20:52:03.486Z,1.77
2019-05-11T20:54:31.734Z,1.87
2019-05-11T20:57:00.289Z,2.60
2019-05-11T20:59:29.137Z,2.47
2019-05-11T21:01:58.629Z,1.70
2019-05-11T21:04:28.242Z,2.43
2019-05-11T21:06:58.096Z,1.80
2019-05-11T21:09:28.714Z,1.77
2019-05-11T21:11:58.937Z,1.63
2019-05-11T21:14:28.852Z,2.20
2019-05-11T21:16:58.650Z,2.53
2019-05-11T21:19:28.303Z,1.90
2019-05-11T21:21:59.002Z,2.00
2019-05-11T21:24:28.120Z,2.30
2019-05-11T21:26:58.446Z,1.87
2019-05-11T21:29:30.933Z,1.87
2019-05-11T21:31:58.974Z,1.80
2019-05-11T21:34:28.017Z,2.40
2019-05-11T21:36:56.338Z,1.80
2019-05-11T21:39:24.760Z,2.10
2019-05-11T21:41:53.215Z,2.20
2019-05-11T21:44:21.659Z,2.10
2019-05-11T21:46:49.912Z,1.90
2019-05-11T21:49:18.609Z,2.17
2019-05-11T21:51:49.378Z,2.60
2019-05-11T21:54:17.191Z,2.17
2019-05-11T21:56:45.706Z,1.70
2019-05-11T21:59:13.857Z,2.00
2019-05-11T22:01:42.627Z,2.07
2019-05-11T22:04:11.243Z,1.97
2019-05-11T22:06:40.210Z,1.63
2019-05-11T22:09:08.743Z,1.87
2019-05-11T22:11:38.113Z,2.40
2019-05-11T22:14:08.244Z,2.20
2019-05-11T22:16:38.764Z,1.90
2019-05-11T22:19:08.888Z,2.13
2019-05-11T22:21:37.261Z,1.87
2019-05-11T22:24:05.412Z,1.70
2019-05-11T22:26:33.631Z,2.20
2019-05-11T22:29:03.340Z,2.20
2019-05-11T22:31:31.491Z,2.23
2019-05-11T22:33:59.667Z,2.00
2019-05-11T22:36:28.421Z,2.23
2019-05-11T22:38:58.796Z,2.00
2019-05-11T22:41:27.133Z,2.30
2019-05-11T22:43:55.308Z,1.97
2019-05-11T22:46:23.736Z,2.10
2019-05-11T22:48:51.969Z,2.37
2019-05-11T22:51:20.379Z,2.07
2019-05-11T22:53:50.478Z,2.33
2019-05-11T22:56:20.154Z,2.13
2019-05-11T22:58:50.010Z,2.17
2019-05-11T23:01:19.002Z,2.10
2019-05-11T23:03:47.661Z,1.83
2019-05-11T23:06:17.917Z,2.10
2019-05-11T23:08:48.299Z,2.20
2019-05-11T23:11:18.002Z,1.87
2019-05-11T23:13:47.903Z,2.50
2019-05-11T23:16:18.024Z,1.57
2019-05-11T23:18:48.101Z,1.93
2019-05-11T23:21:16.706Z,1.90
2019-05-11T23:23:44.868Z,1.53
2019-05-11T23:26:13.050Z,1.90
2019-05-11T23:28:42.412Z,2.63
2019-05-11T23:31:11.382Z,1.93
2019-05-11T23:33:39.982Z,2.07
2019-05-11T23:36:08.370Z,2.23
2019-05-11T23:38:38.672Z,1.57
2019-05-11T23:41:08.258Z,1.90
2019-05-11T23:43:38.396Z,2.20
2019-05-11T23:46:08.314Z,1.73
2019-05-11T23:48:38.620Z,1.90
2019-05-11T23:51:08.728Z,1.93
2019-05-11T23:53:38.776Z,2.10
2019-05-11T23:56:07.460Z,1.70
2019-05-11T23:58:35.954Z,2.90
